sensor_id;sensor_type;location;lat;lon;timestamp;temperature;humidity
17845;DHT22;9047;53.486;10.218;2022-09-09T00:00:15;13.80;99.90
17845;DHT22;9047;53.486;10.218;2022-09-09T00:02:51;13.80;99.90
17845;DHT22;9047;53.486;10.218;2022-09-09T00:08:25;13.80;99.90
17845;DHT22;9047;53.486;10.218;2022-09-09T00:11:33;13.80;99.90
17845;DHT22;9047;53.486;10.218;2022-09-09T00:14:07;13.70;99.90
17845;DHT22;9047;53.486;10.218;2022-09-09T00:16:41;13.80;99.90
17845;DHT22;9047;53.486;10.218;2022-09-09T00:19:27;13.80;99.90
17845;DHT22;9047;53.486;10.218;2022-09-09T00:23:08;13.80;99.90
17845;DHT22;9047;53.486;10.218;2022-09-09T00:25:56;13.90;99.90
17845;DHT22;9047;53.486;10.218;2022-09-09T00:28:39;13.90;99.90
17845;DHT22;9047;53.486;10.218;2022-09-09T00:31:15;14.00;99.90
17845;DHT22;9047;53.486;10.218;2022-09-09T00:33:50;14.00;99.90
17845;DHT22;9047;53.486;10.218;2022-09-09T00:36:20;14.00;99.90
17845;DHT22;9047;53.486;10.218;2022-09-09T00:38:52;14.00;99.90
17845;DHT22;9047;53.486;10.218;2022-09-09T00:41:37;14.00;99.90
17845;DHT22;9047;53.486;10.218;2022-09-09T00:44:30;14.00;99.90
17845;DHT22;9047;53.486;10.218;2022-09-09T00:47:19;14.10;99.90
17845;DHT22;9047;53.486;10.218;2022-09-09T00:49:58;14.10;99.90
17845;DHT22;9047;53.486;10.218;2022-09-09T00:52:43;14.00;99.90
17845;DHT22;9047;53.486;10.218;2022-09-09T00:55:34;14.00;99.90
17845;DHT22;9047;53.486;10.218;2022-09-09T00:58:28;14.00;99.90
17845;DHT22;9047;53.486;10.218;2022-09-09T01:01:02;14.10;99.90
17845;DHT22;9047;53.486;10.218;2022-09-09T01:03:47;14.00;99.90
17845;DHT22;9047;53.486;10.218;2022-09-09T01:06:34;14.10;99.90
17845;DHT22;9047;53.486;10.218;2022-09-09T01:15:41;14.10;99.90
17845;DHT22;9047;53.486;10.218;2022-09-09T01:18:38;14.10;99.90
17845;DHT22;9047;53.486;10.218;2022-09-09T01:21:26;14.10;99.90
17845;DHT22;9047;53.486;10.218;2022-09-09T01:24:08;14.10;99.90
17845;DHT22;9047;53.486;10.218;2022-09-09T01:26:50;14.10;99.90
17845;DHT22;9047;53.486;10.218;2022-09-09T01:29:23;14.00;99.90
17845;DHT22;9047;53.486;10.218;2022-09-09T01:31:54;14.00;99.90
17845;DHT22;9047;53.486;10.218;2022-09-09T01:34:25;14.00;99.90
17845;DHT22;9047;53.486;10.218;2022-09-09T01:37:01;14.00;99.90
17845;DHT22;9047;53.486;10.218;2022-09-09T01:39:33;14.00;99.90
17845;DHT22;9047;53.486;10.218;2022-09-09T01:42:12;14.00;99.90
17845;DHT22;9047;53.486;10.218;2022-09-09T01:44:43;14.00;99.90
17845;DHT22;9047;53.486;10.218;2022-09-09T01:47:21;14.00;99.90
17845;DHT22;9047;53.486;10.218;2022-09-09T01:50:04;14.00;99.90
17845;DHT22;9047;53.486;10.218;2022-09-09T01:52:36;14.00;99.90
17845;DHT22;9047;53.486;10.218;2022-09-09T01:55:28;14.00;99.90
17845;DHT22;9047;53.486;10.218;2022-09-09T01:58:09;14.00;99.90
17845;DHT22;9047;53.486;10.218;2022-09-09T02:06:56;13.90;99.90
17845;DHT22;9047;53.486;10.218;2022-09-09T02:09:27;13.90;99.90
17845;DHT22;9047;53.486;10.218;2022-09-09T02:12:30;13.90;99.90
17845;DHT22;9047;53.486;10.218;2022-09-09T02:18:34;13.90;99.90
17845;DHT22;9047;53.486;10.218;2022-09-09T02:21:08;13.80;99.90
17845;DHT22;9047;53.486;10.218;2022-09-09T02:24:15;13.80;99.90
17845;DHT22;9047;53.486;10.218;2022-09-09T02:27:00;13.80;99.90
17845;DHT22;9047;53.486;10.218;2022-09-09T02:29:36;13.80;99.90
17845;DHT22;9047;53.486;10.218;2022-09-09T02:32:19;13.70;99.90
17845;DHT22;9047;53.486;10.218;2022-09-09T02:35:32;13.70;99.90
17845;DHT22;9047;53.486;10.218;2022-09-09T02:38:08;13.60;99.90
17845;DHT22;9047;53.486;10.218;2022-09-09T02:40:43;13.70;99.90
17845;DHT22;9047;53.486;10.218;2022-09-09T02:43:14;13.60;99.90
17845;DHT22;9047;53.486;10.218;2022-09-09T02:48:58;13.60;99.90
17845;DHT22;9047;53.486;10.218;2022-09-09T02:51:55;13.60;99.90
17845;DHT22;9047;53.486;10.218;2022-09-09T02:54:38;13.60;99.90
17845;DHT22;9047;53.486;10.218;2022-09-09T02:57:12;13.60;99.90
17845;DHT22;9047;53.486;10.218;2022-09-09T02:59:56;13.50;99.90
17845;DHT22;9047;53.486;10.218;2022-09-09T03:02:35;13.50;99.90
17845;DHT22;9047;53.486;10.218;2022-09-09T03:05:13;13.50;99.90
17845;DHT22;9047;53.486;10.218;2022-09-09T03:07:43;13.50;99.90
17845;DHT22;9047;53.486;10.218;2022-09-09T03:10:12;13.50;99.90
17845;DHT22;9047;53.486;10.218;2022-09-09T03:12:39;13.50;99.90
17845;DHT22;9047;53.486;10.218;2022-09-09T03:15:11;13.50;99.90
17845;DHT22;9047;53.486;10.218;2022-09-09T03:17:45;13.50;99.90
17845;DHT22;9047;53.486;10.218;2022-09-09T03:20:17;13.50;99.90
17845;DHT22;9047;53.486;10.218;2022-09-09T03:22:49;13.50;99.90
17845;DHT22;9047;53.486;10.218;2022-09-09T03:25:17;13.40;99.90
17845;DHT22;9047;53.486;10.218;2022-09-09T03:27:52;13.40;99.90
17845;DHT22;9047;53.486;10.218;2022-09-09T03:30:27;13.40;99.90
17845;DHT22;9047;53.486;10.218;2022-09-09T03:32:58;13.40;99.90
17845;DHT22;9047;53.486;10.218;2022-09-09T03:35:44;13.40;99.90
17845;DHT22;9047;53.486;10.218;2022-09-09T03:38:15;13.30;99.90
17845;DHT22;9047;53.486;10.218;2022-09-09T03:40:56;13.30;99.90
17845;DHT22;9047;53.486;10.218;2022-09-09T03:46:33;13.30;99.90
17845;DHT22;9047;53.486;10.218;2022-09-09T03:49:15;13.20;99.90
17845;DHT22;9047;53.486;10.218;2022-09-09T03:51:48;13.20;99.90
17845;DHT22;9047;53.486;10.218;2022-09-09T03:54:29;13.30;99.90
17845;DHT22;9047;53.486;10.218;2022-09-09T03:57:03;13.20;99.90
17845;DHT22;9047;53.486;10.218;2022-09-09T03:59:35;13.20;99.90
17845;DHT22;9047;53.486;10.218;2022-09-09T04:02:05;13.10;99.90
17845;DHT22;9047;53.486;10.218;2022-09-09T04:04:47;13.20;99.90
17845;DHT22;9047;53.486;10.218;2022-09-09T04:07:28;13.10;99.90
17845;DHT22;9047;53.486;10.218;2022-09-09T04:10:11;13.10;99.90
17845;DHT22;9047;53.486;10.218;2022-09-09T04:13:16;13.10;99.90
17845;DHT22;9047;53.486;10.218;2022-09-09T04:19:32;13.10;99.90
17845;DHT22;9047;53.486;10.218;2022-09-09T04:22:44;13.00;99.90
17845;DHT22;9047;53.486;10.218;2022-09-09T04:25:48;13.00;99.90
17845;DHT22;9047;53.486;10.218;2022-09-09T04:28:25;13.00;99.90
17845;DHT22;9047;53.486;10.218;2022-09-09T04:30:54;12.90;99.90
17845;DHT22;9047;53.486;10.218;2022-09-09T04:33:33;12.90;99.90
17845;DHT22;9047;53.486;10.218;2022-09-09T04:36:14;12.90;99.90
17845;DHT22;9047;53.486;10.218;2022-09-09T04:38:48;12.90;99.90
17845;DHT22;9047;53.486;10.218;2022-09-09T04:41:21;13.00;99.90
17845;DHT22;9047;53.486;10.218;2022-09-09T04:43:52;13.00;99.90
17845;DHT22;9047;53.486;10.218;2022-09-09T04:46:33;13.10;99.90
17845;DHT22;9047;53.486;10.218;2022-09-09T04:49:02;13.10;99.90
17845;DHT22;9047;53.486;10.218;2022-09-09T04:51:43;13.20;99.90
17845;DHT22;9047;53.486;10.218;2022-09-09T05:18:30;13.30;99.90
17845;DHT22;9047;53.486;10.218;2022-09-09T05:24:10;13.30;99.90
17845;DHT22;9047;53.486;10.218;2022-09-09T05:45:03;13.60;99.90
17845;DHT22;9047;53.486;10.218;2022-09-09T06:39:02;14.50;99.90
17845;DHT22;9047;53.486;10.218;2022-09-09T07:24:16;17.30;99.90
17845;DHT22;9047;53.486;10.218;2022-09-09T07:26:36;17.20;99.90
17845;DHT22;9047;53.486;10.218;2022-09-09T07:29:36;17.10;99.90
17845;DHT22;9047;53.486;10.218;2022-09-09T07:32:35;17.00;99.90
17845;DHT22;9047;53.486;10.218;2022-09-09T07:42:28;17.40;99.90
17845;DHT22;9047;53.486;10.218;2022-09-09T07:45:05;17.40;99.90
17845;DHT22;9047;53.486;10.218;2022-09-09T07:50:48;17.60;99.90
17845;DHT22;9047;53.486;10.218;2022-09-09T07:53:32;17.70;99.90
17845;DHT22;9047;53.486;10.218;2022-09-09T07:56:44;17.80;99.90
17845;DHT22;9047;53.486;10.218;2022-09-09T07:59:34;17.70;99.90
17845;DHT22;9047;53.486;10.218;2022-09-09T08:02:25;17.50;99.90
17845;DHT22;9047;53.486;10.218;2022-09-09T08:12:28;17.00;99.90
17845;DHT22;9047;53.486;10.218;2022-09-09T08:15:40;17.00;99.90
17845;DHT22;9047;53.486;10.218;2022-09-09T08:21:45;17.20;99.90
17845;DHT22;9047;53.486;10.218;2022-09-09T08:28:03;17.40;99.90
17845;DHT22;9047;53.486;10.218;2022-09-09T08:30:40;17.60;99.90
17845;DHT22;9047;53.486;10.218;2022-09-09T08:33:12;17.60;99.90
17845;DHT22;9047;53.486;10.218;2022-09-09T08:36:10;17.40;99.90
17845;DHT22;9047;53.486;10.218;2022-09-09T08:39:00;17.40;99.90
17845;DHT22;9047;53.486;10.218;2022-09-09T08:45:26;17.40;99.90
17845;DHT22;9047;53.486;10.218;2022-09-09T08:51:36;17.50;99.90
17845;DHT22;9047;53.486;10.218;2022-09-09T08:54:43;17.70;99.90
17845;DHT22;9047;53.486;10.218;2022-09-09T09:00:40;18.00;99.90
17845;DHT22;9047;53.486;10.218;2022-09-09T09:16:51;18.70;99.90
17845;DHT22;9047;53.486;10.218;2022-09-09T09:22:52;18.90;99.90
17845;DHT22;9047;53.486;10.218;2022-09-09T09:25:38;19.00;99.90
17845;DHT22;9047;53.486;10.218;2022-09-09T09:28:27;19.30;99.90
17845;DHT22;9047;53.486;10.218;2022-09-09T09:31:26;19.50;99.90
17845;DHT22;9047;53.486;10.218;2022-09-09T09:34:23;19.70;99.90
17845;DHT22;9047;53.486;10.218;2022-09-09T09:37:25;20.00;99.90
17845;DHT22;9047;53.486;10.218;2022-09-09T09:40:14;20.20;99.90
17845;DHT22;9047;53.486;10.218;2022-09-09T09:43:16;20.20;99.90
17845;DHT22;9047;53.486;10.218;2022-09-09T09:46:16;20.40;99.90
17845;DHT22;9047;53.486;10.218;2022-09-09T09:48:51;20.60;99.90
17845;DHT22;9047;53.486;10.218;2022-09-09T09:51:42;20.90;99.90
17845;DHT22;9047;53.486;10.218;2022-09-09T09:54:33;21.00;99.90
17845;DHT22;9047;53.486;10.218;2022-09-09T09:57:32;20.80;99.90
17845;DHT22;9047;53.486;10.218;2022-09-09T10:00:35;20.60;99.90
17845;DHT22;9047;53.486;10.218;2022-09-09T10:09:59;20.30;99.90
17845;DHT22;9047;53.486;10.218;2022-09-09T10:16:04;20.60;99.90
17845;DHT22;9047;53.486;10.218;2022-09-09T10:18:52;20.90;99.90
17845;DHT22;9047;53.486;10.218;2022-09-09T10:28:22;21.20;99.90
17845;DHT22;9047;53.486;10.218;2022-09-09T10:31:15;21.10;99.90
17845;DHT22;9047;53.486;10.218;2022-09-09T10:34:24;21.00;99.90
17845;DHT22;9047;53.486;10.218;2022-09-09T10:37:44;20.70;99.90
17845;DHT22;9047;53.486;10.218;2022-09-09T10:41:11;20.20;99.90
17845;DHT22;9047;53.486;10.218;2022-09-09T10:44:32;19.90;99.90
17845;DHT22;9047;53.486;10.218;2022-09-09T10:57:51;20.00;99.90
17845;DHT22;9047;53.486;10.218;2022-09-09T11:01:08;19.90;99.90
17845;DHT22;9047;53.486;10.218;2022-09-09T11:04:19;19.80;99.90
17845;DHT22;9047;53.486;10.218;2022-09-09T11:07:28;19.80;99.90
17845;DHT22;9047;53.486;10.218;2022-09-09T11:10:29;19.90;99.90
17845;DHT22;9047;53.486;10.218;2022-09-09T11:13:23;20.00;99.90
17845;DHT22;9047;53.486;10.218;2022-09-09T11:16:04;20.20;99.90
17845;DHT22;9047;53.486;10.218;2022-09-09T11:18:44;20.40;99.90
17845;DHT22;9047;53.486;10.218;2022-09-09T11:21:53;20.60;99.90
17845;DHT22;9047;53.486;10.218;2022-09-09T11:25:03;20.90;99.90
17845;DHT22;9047;53.486;10.218;2022-09-09T11:31:48;22.20;99.90
17845;DHT22;9047;53.486;10.218;2022-09-09T11:38:25;22.80;99.90
17845;DHT22;9047;53.486;10.218;2022-09-09T11:41:00;22.50;99.90
17845;DHT22;9047;53.486;10.218;2022-09-09T11:43:59;22.20;99.90
17845;DHT22;9047;53.486;10.218;2022-09-09T11:46:56;21.90;99.90
17845;DHT22;9047;53.486;10.218;2022-09-09T11:53:02;21.20;99.90
17845;DHT22;9047;53.486;10.218;2022-09-09T11:59:29;20.60;99.90
17845;DHT22;9047;53.486;10.218;2022-09-09T12:02:22;20.30;99.90
17845;DHT22;9047;53.486;10.218;2022-09-09T12:05:09;20.30;99.90
17845;DHT22;9047;53.486;10.218;2022-09-09T12:25:12;21.00;99.90
17845;DHT22;9047;53.486;10.218;2022-09-09T12:28:05;20.80;99.90
17845;DHT22;9047;53.486;10.218;2022-09-09T12:42:01;20.60;99.90
17845;DHT22;9047;53.486;10.218;2022-09-09T12:48:27;20.70;99.90
17845;DHT22;9047;53.486;10.218;2022-09-09T12:51:07;20.90;99.90
17845;DHT22;9047;53.486;10.218;2022-09-09T12:54:01;21.10;99.90
17845;DHT22;9047;53.486;10.218;2022-09-09T12:57:00;21.40;99.90
17845;DHT22;9047;53.486;10.218;2022-09-09T12:59:42;21.70;99.90
17845;DHT22;9047;53.486;10.218;2022-09-09T13:03:13;22.10;99.90
17845;DHT22;9047;53.486;10.218;2022-09-09T13:05:45;22.30;99.90
17845;DHT22;9047;53.486;10.218;2022-09-09T13:08:18;22.60;99.90
17845;DHT22;9047;53.486;10.218;2022-09-09T13:11:00;22.80;99.90
17845;DHT22;9047;53.486;10.218;2022-09-09T13:23:15;22.30;99.90
17845;DHT22;9047;53.486;10.218;2022-09-09T13:26:19;22.00;99.90
17845;DHT22;9047;53.486;10.218;2022-09-09T13:29:16;21.80;99.90
17845;DHT22;9047;53.486;10.218;2022-09-09T13:31:52;21.50;99.90
17845;DHT22;9047;53.486;10.218;2022-09-09T13:35:26;21.30;99.90
17845;DHT22;9047;53.486;10.218;2022-09-09T13:37:45;21.10;99.90
17845;DHT22;9047;53.486;10.218;2022-09-09T13:40:28;20.80;99.90
17845;DHT22;9047;53.486;10.218;2022-09-09T13:43:27;20.60;99.90
17845;DHT22;9047;53.486;10.218;2022-09-09T13:46:26;20.30;99.90
17845;DHT22;9047;53.486;10.218;2022-09-09T13:52:44;19.80;99.90
17845;DHT22;9047;53.486;10.218;2022-09-09T13:55:18;19.50;99.90
17845;DHT22;9047;53.486;10.218;2022-09-09T13:58:02;19.30;99.90
17845;DHT22;9047;53.486;10.218;2022-09-09T14:00:52;19.20;99.90
17845;DHT22;9047;53.486;10.218;2022-09-09T14:03:31;19.10;99.90
17845;DHT22;9047;53.486;10.218;2022-09-09T14:06:12;18.90;99.90
17845;DHT22;9047;53.486;10.218;2022-09-09T14:09:15;18.80;99.90
17845;DHT22;9047;53.486;10.218;2022-09-09T14:11:48;18.60;99.90
17845;DHT22;9047;53.486;10.218;2022-09-09T14:14:27;18.50;99.90
17845;DHT22;9047;53.486;10.218;2022-09-09T14:16:56;18.20;99.90
17845;DHT22;9047;53.486;10.218;2022-09-09T14:19:39;18.10;99.90
17845;DHT22;9047;53.486;10.218;2022-09-09T14:22:20;18.00;99.90
17845;DHT22;9047;53.486;10.218;2022-09-09T14:25:14;17.80;99.90
17845;DHT22;9047;53.486;10.218;2022-09-09T14:27:46;17.70;99.90
17845;DHT22;9047;53.486;10.218;2022-09-09T14:30:54;17.50;99.90
17845;DHT22;9047;53.486;10.218;2022-09-09T14:33:32;17.30;99.90
17845;DHT22;9047;53.486;10.218;2022-09-09T14:36:19;17.20;99.90
17845;DHT22;9047;53.486;10.218;2022-09-09T14:38:49;17.00;99.90
17845;DHT22;9047;53.486;10.218;2022-09-09T14:41:24;16.90;99.90
17845;DHT22;9047;53.486;10.218;2022-09-09T14:43:56;16.70;99.90
17845;DHT22;9047;53.486;10.218;2022-09-09T14:46:29;16.60;99.90
17845;DHT22;9047;53.486;10.218;2022-09-09T14:49:02;16.40;99.90
17845;DHT22;9047;53.486;10.218;2022-09-09T14:54:25;16.20;99.90
17845;DHT22;9047;53.486;10.218;2022-09-09T14:57:44;16.20;99.90
17845;DHT22;9047;53.486;10.218;2022-09-09T15:00:34;16.10;99.90
17845;DHT22;9047;53.486;10.218;2022-09-09T15:03:07;16.10;99.90
17845;DHT22;9047;53.486;10.218;2022-09-09T15:05:43;16.00;99.90
17845;DHT22;9047;53.486;10.218;2022-09-09T15:08:42;16.00;99.90
17845;DHT22;9047;53.486;10.218;2022-09-09T15:14:26;15.90;99.90
17845;DHT22;9047;53.486;10.218;2022-09-09T15:16:56;15.80;99.90
17845;DHT22;9047;53.486;10.218;2022-09-09T15:19:40;15.80;99.90
17845;DHT22;9047;53.486;10.218;2022-09-09T15:22:19;15.80;99.90
17845;DHT22;9047;53.486;10.218;2022-09-09T15:25:08;15.80;99.90
17845;DHT22;9047;53.486;10.218;2022-09-09T15:27:44;15.80;99.90
17845;DHT22;9047;53.486;10.218;2022-09-09T15:30:20;15.80;99.90
17845;DHT22;9047;53.486;10.218;2022-09-09T15:33:11;15.80;99.90
17845;DHT22;9047;53.486;10.218;2022-09-09T15:35:53;15.90;99.90
17845;DHT22;9047;53.486;10.218;2022-09-09T15:38:56;15.90;99.90
17845;DHT22;9047;53.486;10.218;2022-09-09T15:45:05;16.00;99.90
17845;DHT22;9047;53.486;10.218;2022-09-09T15:47:39;16.10;99.90
17845;DHT22;9047;53.486;10.218;2022-09-09T15:50:20;16.20;99.90
17845;DHT22;9047;53.486;10.218;2022-09-09T15:53:07;16.30;99.90
17845;DHT22;9047;53.486;10.218;2022-09-09T15:55:43;16.30;99.90
17845;DHT22;9047;53.486;10.218;2022-09-09T15:58:19;16.40;99.90
17845;DHT22;9047;53.486;10.218;2022-09-09T16:01:08;16.50;99.90
17845;DHT22;9047;53.486;10.218;2022-09-09T16:04:00;16.60;99.90
17845;DHT22;9047;53.486;10.218;2022-09-09T16:06:35;16.70;99.90
17845;DHT22;9047;53.486;10.218;2022-09-09T16:09:14;16.70;99.90
17845;DHT22;9047;53.486;10.218;2022-09-09T16:11:48;16.70;99.90
17845;DHT22;9047;53.486;10.218;2022-09-09T16:14:24;16.80;99.90
17845;DHT22;9047;53.486;10.218;2022-09-09T16:17:17;16.90;99.90
17845;DHT22;9047;53.486;10.218;2022-09-09T16:19:47;16.90;99.90
17845;DHT22;9047;53.486;10.218;2022-09-09T16:25:21;16.90;99.90
17845;DHT22;9047;53.486;10.218;2022-09-09T16:27:56;17.00;99.90
17845;DHT22;9047;53.486;10.218;2022-09-09T16:30:37;17.00;99.90
17845;DHT22;9047;53.486;10.218;2022-09-09T16:33:21;17.10;99.90
17845;DHT22;9047;53.486;10.218;2022-09-09T16:35:52;17.10;99.90
17845;DHT22;9047;53.486;10.218;2022-09-09T16:39:05;17.20;99.90
17845;DHT22;9047;53.486;10.218;2022-09-09T16:41:43;17.20;99.90
17845;DHT22;9047;53.486;10.218;2022-09-09T16:44:27;17.20;99.90
17845;DHT22;9047;53.486;10.218;2022-09-09T16:47:04;17.20;99.90
17845;DHT22;9047;53.486;10.218;2022-09-09T16:49:46;17.10;99.90
17845;DHT22;9047;53.486;10.218;2022-09-09T16:52:19;17.10;99.90
17845;DHT22;9047;53.486;10.218;2022-09-09T16:54:50;17.10;99.90
17845;DHT22;9047;53.486;10.218;2022-09-09T16:57:27;17.00;99.90
17845;DHT22;9047;53.486;10.218;2022-09-09T17:00:03;16.90;99.90
17845;DHT22;9047;53.486;10.218;2022-09-09T17:02:33;16.90;99.90
17845;DHT22;9047;53.486;10.218;2022-09-09T17:05:41;16.80;99.90
17845;DHT22;9047;53.486;10.218;2022-09-09T17:08:19;16.80;99.90
17845;DHT22;9047;53.486;10.218;2022-09-09T17:10:52;16.70;99.90
17845;DHT22;9047;53.486;10.218;2022-09-09T17:13:20;16.70;99.90
17845;DHT22;9047;53.486;10.218;2022-09-09T17:15:56;16.60;99.90
17845;DHT22;9047;53.486;10.218;2022-09-09T17:18:39;16.60;99.90
17845;DHT22;9047;53.486;10.218;2022-09-09T17:21:26;16.50;99.90
17845;DHT22;9047;53.486;10.218;2022-09-09T17:24:06;16.40;99.90
17845;DHT22;9047;53.486;10.218;2022-09-09T17:26:55;16.30;99.90
17845;DHT22;9047;53.486;10.218;2022-09-09T17:29:23;16.30;99.90
17845;DHT22;9047;53.486;10.218;2022-09-09T17:34:49;16.10;99.90
17845;DHT22;9047;53.486;10.218;2022-09-09T17:37:24;16.00;99.90
17845;DHT22;9047;53.486;10.218;2022-09-09T17:40:24;16.00;99.90
17845;DHT22;9047;53.486;10.218;2022-09-09T17:42:57;15.90;99.90
17845;DHT22;9047;53.486;10.218;2022-09-09T17:46:19;15.80;99.90
17845;DHT22;9047;53.486;10.218;2022-09-09T17:52:49;15.60;99.90
17845;DHT22;9047;53.486;10.218;2022-09-09T17:55:36;15.50;99.90
17845;DHT22;9047;53.486;10.218;2022-09-09T17:58:21;15.50;99.90
17845;DHT22;9047;53.486;10.218;2022-09-09T18:00:51;15.40;99.90
17845;DHT22;9047;53.486;10.218;2022-09-09T18:03:21;15.30;99.90
17845;DHT22;9047;53.486;10.218;2022-09-09T18:05:52;15.20;99.90
17845;DHT22;9047;53.486;10.218;2022-09-09T18:08:40;15.20;99.90
17845;DHT22;9047;53.486;10.218;2022-09-09T18:11:54;15.10;99.90
17845;DHT22;9047;53.486;10.218;2022-09-09T18:14:28;15.10;99.90
17845;DHT22;9047;53.486;10.218;2022-09-09T18:17:23;15.00;99.90
17845;DHT22;9047;53.486;10.218;2022-09-09T18:20:02;15.00;99.90
17845;DHT22;9047;53.486;10.218;2022-09-09T18:22:32;15.00;99.90
17845;DHT22;9047;53.486;10.218;2022-09-09T18:28:21;14.90;99.90
17845;DHT22;9047;53.486;10.218;2022-09-09T18:30:52;14.90;99.90
17845;DHT22;9047;53.486;10.218;2022-09-09T18:33:23;14.90;99.90
17845;DHT22;9047;53.486;10.218;2022-09-09T18:35:51;14.80;99.90
17845;DHT22;9047;53.486;10.218;2022-09-09T18:38:21;14.80;99.90
17845;DHT22;9047;53.486;10.218;2022-09-09T18:41:00;14.80;99.90
17845;DHT22;9047;53.486;10.218;2022-09-09T18:43:38;14.80;99.90
17845;DHT22;9047;53.486;10.218;2022-09-09T18:46:37;14.70;99.90
17845;DHT22;9047;53.486;10.218;2022-09-09T18:52:45;14.80;99.90
17845;DHT22;9047;53.486;10.218;2022-09-09T18:58:52;14.80;99.90
17845;DHT22;9047;53.486;10.218;2022-09-09T19:01:22;14.70;99.90
17845;DHT22;9047;53.486;10.218;2022-09-09T19:03:55;14.80;99.90
17845;DHT22;9047;53.486;10.218;2022-09-09T19:06:45;14.80;99.90
17845;DHT22;9047;53.486;10.218;2022-09-09T19:09:38;14.70;99.90
17845;DHT22;9047;53.486;10.218;2022-09-09T19:12:16;14.70;99.90
17845;DHT22;9047;53.486;10.218;2022-09-09T19:15:11;14.70;99.90
17845;DHT22;9047;53.486;10.218;2022-09-09T19:18:00;14.60;99.90
17845;DHT22;9047;53.486;10.218;2022-09-09T19:24:10;14.60;99.90
17845;DHT22;9047;53.486;10.218;2022-09-09T19:44:17;14.50;99.90
17845;DHT22;9047;53.486;10.218;2022-09-09T19:46:51;14.40;99.90
17845;DHT22;9047;53.486;10.218;2022-09-09T19:49:51;14.40;99.90
17845;DHT22;9047;53.486;10.218;2022-09-09T19:52:22;14.40;99.90
17845;DHT22;9047;53.486;10.218;2022-09-09T20:11:56;14.30;99.90
17845;DHT22;9047;53.486;10.218;2022-09-09T20:28:06;14.20;99.90
17845;DHT22;9047;53.486;10.218;2022-09-09T20:30:41;14.20;99.90
17845;DHT22;9047;53.486;10.218;2022-09-09T20:33:46;14.30;99.90
17845;DHT22;9047;53.486;10.218;2022-09-09T20:39:58;14.40;99.90
17845;DHT22;9047;53.486;10.218;2022-09-09T21:04:53;14.10;99.90
17845;DHT22;9047;53.486;10.218;2022-09-09T21:08:06;14.10;99.90
17845;DHT22;9047;53.486;10.218;2022-09-09T21:10:44;14.30;99.90
17845;DHT22;9047;53.486;10.218;2022-09-09T21:13:28;14.30;99.90
17845;DHT22;9047;53.486;10.218;2022-09-09T21:15:56;14.40;99.90
17845;DHT22;9047;53.486;10.218;2022-09-09T21:18:34;14.40;99.90
17845;DHT22;9047;53.486;10.218;2022-09-09T21:24:18;14.50;99.90
17845;DHT22;9047;53.486;10.218;2022-09-09T21:26:58;14.50;99.90
17845;DHT22;9047;53.486;10.218;2022-09-09T21:33:20;14.60;99.90
17845;DHT22;9047;53.486;10.218;2022-09-09T21:36:02;14.60;99.90
17845;DHT22;9047;53.486;10.218;2022-09-09T21:38:34;14.70;99.90
17845;DHT22;9047;53.486;10.218;2022-09-09T21:54:52;14.80;99.90
17845;DHT22;9047;53.486;10.218;2022-09-09T21:57:23;14.70;99.90
17845;DHT22;9047;53.486;10.218;2022-09-09T22:00:14;14.70;99.90
17845;DHT22;9047;53.486;10.218;2022-09-09T22:03:17;14.70;99.90
17845;DHT22;9047;53.486;10.218;2022-09-09T22:06:16;14.60;99.90
17845;DHT22;9047;53.486;10.218;2022-09-09T22:08:50;14.60;99.90
17845;DHT22;9047;53.486;10.218;2022-09-09T22:11:21;14.60;99.90
17845;DHT22;9047;53.486;10.218;2022-09-09T22:14:00;14.60;99.90
17845;DHT22;9047;53.486;10.218;2022-09-09T22:17:08;14.60;99.90
17845;DHT22;9047;53.486;10.218;2022-09-09T22:23:38;14.60;99.90
17845;DHT22;9047;53.486;10.218;2022-09-09T22:26:10;14.50;99.90
17845;DHT22;9047;53.486;10.218;2022-09-09T22:32:07;14.50;99.90
17845;DHT22;9047;53.486;10.218;2022-09-09T22:35:10;14.50;99.90
17845;DHT22;9047;53.486;10.218;2022-09-09T22:37:53;14.50;99.90
17845;DHT22;9047;53.486;10.218;2022-09-09T22:40:43;14.50;99.90
17845;DHT22;9047;53.486;10.218;2022-09-09T22:43:28;14.50;99.90
17845;DHT22;9047;53.486;10.218;2022-09-09T22:49:46;14.40;99.90
17845;DHT22;9047;53.486;10.218;2022-09-09T23:47:37;14.10;99.90
